Bathurst Airport Bathurst CA
ICAO: CZBF
IATA: ZBF
Category: Medium
Scheduled Services: Yes

Elevation: 193 ft
TransAlt. 18000 ft.

Airport Communications:
QUEBEC RDO:123.45
ATF/UNICOM:122.8

CZBF Zoom In..

Runways:

(A) RW 10 length 4500 ft width 100 ft
---- / hdg 102

(B) RW 28 length 4500 ft width 100 ft
---- / hdg 282

Location; CZBF
Day. 23 / Time. 22.00 Zulu
* Altimeter: 29.96
* Temperature: 03° c. 37.4°f.
* Wind from: 210° Speed 04 kn.
Dewpoint: 01° c.
Visibility: 15 Statute Miles.
Clouds: Scattered 2000 ft.

CZBF 232200Z 21004KT 190V280 15SM SCT020 03/01 A2996 RMK SC4 SLP150


Wind From 210°
Speed 04 kn.

 
 
jpsmedia.com for Web Design SOUNDCLOUD worldairports.se 2018   terms of use